METAR Data
IDs: Format: Raw Decoded Include TAF

Data at: 0952 UTC 28 Sep 2021

KANE 280935Z AUTO 00000KT 10SM CLR 11/10 A2992 RMK AO2